sensor_id;sensor_type;location;lat;lon;timestamp;temperature;humidity
11961;DHT22;6040;49.358;11.140;2023-02-23T00:02:13;7.90;99.90
11961;DHT22;6040;49.358;11.140;2023-02-23T00:04:40;7.70;99.90
11961;DHT22;6040;49.358;11.140;2023-02-23T00:07:06;7.30;99.90
11961;DHT22;6040;49.358;11.140;2023-02-23T00:09:34;7.30;99.90
11961;DHT22;6040;49.358;11.140;2023-02-23T00:12:02;7.20;99.90
11961;DHT22;6040;49.358;11.140;2023-02-23T00:14:33;7.20;99.90
11961;DHT22;6040;49.358;11.140;2023-02-23T00:17:02;7.20;99.90
11961;DHT22;6040;49.358;11.140;2023-02-23T00:19:30;7.20;99.90
11961;DHT22;6040;49.358;11.140;2023-02-23T00:21:57;7.10;99.90
11961;DHT22;6040;49.358;11.140;2023-02-23T00:24:25;7.10;99.90
11961;DHT22;6040;49.358;11.140;2023-02-23T00:26:52;7.20;99.90
11961;DHT22;6040;49.358;11.140;2023-02-23T00:29:21;7.00;99.90
11961;DHT22;6040;49.358;11.140;2023-02-23T00:31:50;7.00;99.90
11961;DHT22;6040;49.358;11.140;2023-02-23T00:34:18;6.90;99.90
11961;DHT22;6040;49.358;11.140;2023-02-23T00:36:48;6.90;99.90
11961;DHT22;6040;49.358;11.140;2023-02-23T00:39:15;8.90;99.90
11961;DHT22;6040;49.358;11.140;2023-02-23T00:41:46;7.00;99.90
11961;DHT22;6040;49.358;11.140;2023-02-23T00:44:13;7.00;99.90
11961;DHT22;6040;49.358;11.140;2023-02-23T00:46:42;9.10;99.90
11961;DHT22;6040;49.358;11.140;2023-02-23T00:49:10;7.70;99.90
11961;DHT22;6040;49.358;11.140;2023-02-23T00:51:37;7.00;99.90
11961;DHT22;6040;49.358;11.140;2023-02-23T00:54:06;7.00;99.90
11961;DHT22;6040;49.358;11.140;2023-02-23T00:56:34;7.10;99.90
11961;DHT22;6040;49.358;11.140;2023-02-23T00:59:01;7.00;99.90
11961;DHT22;6040;49.358;11.140;2023-02-23T01:01:27;7.00;99.90
11961;DHT22;6040;49.358;11.140;2023-02-23T01:03:54;7.00;99.90
11961;DHT22;6040;49.358;11.140;2023-02-23T01:06:21;7.00;99.90
11961;DHT22;6040;49.358;11.140;2023-02-23T01:08:49;7.00;99.90
11961;DHT22;6040;49.358;11.140;2023-02-23T01:11:23;7.00;99.90
11961;DHT22;6040;49.358;11.140;2023-02-23T01:13:54;7.00;99.90
11961;DHT22;6040;49.358;11.140;2023-02-23T01:16:22;6.90;99.90
11961;DHT22;6040;49.358;11.140;2023-02-23T01:18:53;7.00;99.90
11961;DHT22;6040;49.358;11.140;2023-02-23T01:21:23;8.60;99.90
11961;DHT22;6040;49.358;11.140;2023-02-23T01:23:51;6.90;99.90
11961;DHT22;6040;49.358;11.140;2023-02-23T01:26:20;8.40;99.90
11961;DHT22;6040;49.358;11.140;2023-02-23T01:28:52;6.90;99.90
11961;DHT22;6040;49.358;11.140;2023-02-23T01:31:21;6.90;99.90
11961;DHT22;6040;49.358;11.140;2023-02-23T01:33:52;6.80;99.90
11961;DHT22;6040;49.358;11.140;2023-02-23T01:36:19;6.80;99.90
11961;DHT22;6040;49.358;11.140;2023-02-23T01:38:46;6.90;99.90
11961;DHT22;6040;49.358;11.140;2023-02-23T01:41:13;6.80;99.90
11961;DHT22;6040;49.358;11.140;2023-02-23T01:43:56;6.80;99.90
11961;DHT22;6040;49.358;11.140;2023-02-23T01:46:23;8.90;99.90
11961;DHT22;6040;49.358;11.140;2023-02-23T01:48:50;6.70;99.90
11961;DHT22;6040;49.358;11.140;2023-02-23T01:51:22;6.70;99.90
11961;DHT22;6040;49.358;11.140;2023-02-23T01:53:55;6.70;99.90
11961;DHT22;6040;49.358;11.140;2023-02-23T01:56:25;8.30;99.90
11961;DHT22;6040;49.358;11.140;2023-02-23T01:58:56;6.60;99.90
11961;DHT22;6040;49.358;11.140;2023-02-23T02:01:24;6.60;99.90
11961;DHT22;6040;49.358;11.140;2023-02-23T02:03:55;6.60;99.90
11961;DHT22;6040;49.358;11.140;2023-02-23T02:06:24;6.60;99.90
11961;DHT22;6040;49.358;11.140;2023-02-23T02:08:55;6.60;99.90
11961;DHT22;6040;49.358;11.140;2023-02-23T02:11:23;6.60;99.90
11961;DHT22;6040;49.358;11.140;2023-02-23T02:14:04;6.50;99.90
11961;DHT22;6040;49.358;11.140;2023-02-23T02:16:57;6.40;99.90
11961;DHT22;6040;49.358;11.140;2023-02-23T02:19:57;6.40;99.90
11961;DHT22;6040;49.358;11.140;2023-02-23T02:25:47;6.40;99.90
11961;DHT22;6040;49.358;11.140;2023-02-23T02:28:34;6.40;99.90
11961;DHT22;6040;49.358;11.140;2023-02-23T02:37:41;6.80;99.90
11961;DHT22;6040;49.358;11.140;2023-02-23T02:40:18;6.40;99.90
11961;DHT22;6040;49.358;11.140;2023-02-23T02:42:53;8.40;99.90
11961;DHT22;6040;49.358;11.140;2023-02-23T02:45:27;6.30;99.90
11961;DHT22;6040;49.358;11.140;2023-02-23T02:48:02;6.20;99.90
11961;DHT22;6040;49.358;11.140;2023-02-23T02:50:38;6.20;99.90
11961;DHT22;6040;49.358;11.140;2023-02-23T02:53:09;6.10;99.90
11961;DHT22;6040;49.358;11.140;2023-02-23T02:55:38;6.10;99.90
11961;DHT22;6040;49.358;11.140;2023-02-23T02:58:10;6.10;99.90
11961;DHT22;6040;49.358;11.140;2023-02-23T03:00:41;6.00;99.90
11961;DHT22;6040;49.358;11.140;2023-02-23T03:03:28;6.00;99.90
11961;DHT22;6040;49.358;11.140;2023-02-23T03:06:14;6.00;99.90
11961;DHT22;6040;49.358;11.140;2023-02-23T03:09:06;5.90;99.90
11961;DHT22;6040;49.358;11.140;2023-02-23T03:12:06;5.90;99.90
11961;DHT22;6040;49.358;11.140;2023-02-23T03:14:59;5.90;99.90
11961;DHT22;6040;49.358;11.140;2023-02-23T03:17:49;5.90;99.90
11961;DHT22;6040;49.358;11.140;2023-02-23T03:20:40;5.90;99.90
11961;DHT22;6040;49.358;11.140;2023-02-23T03:23:30;5.90;99.90
11961;DHT22;6040;49.358;11.140;2023-02-23T03:26:23;5.90;99.90
11961;DHT22;6040;49.358;11.140;2023-02-23T03:29:15;5.90;99.90
11961;DHT22;6040;49.358;11.140;2023-02-23T03:32:08;5.90;99.90
11961;DHT22;6040;49.358;11.140;2023-02-23T03:34:57;5.80;99.90
11961;DHT22;6040;49.358;11.140;2023-02-23T03:37:49;7.30;99.90
11961;DHT22;6040;49.358;11.140;2023-02-23T03:40:37;5.80;99.90
11961;DHT22;6040;49.358;11.140;2023-02-23T03:43:26;5.70;99.90
11961;DHT22;6040;49.358;11.140;2023-02-23T03:46:13;5.80;99.90
11961;DHT22;6040;49.358;11.140;2023-02-23T03:49:01;6.70;99.90
11961;DHT22;6040;49.358;11.140;2023-02-23T03:52:04;5.70;99.90
11961;DHT22;6040;49.358;11.140;2023-02-23T03:54:53;5.80;99.90
11961;DHT22;6040;49.358;11.140;2023-02-23T03:57:40;5.70;99.90
11961;DHT22;6040;49.358;11.140;2023-02-23T04:00:29;5.60;99.90
11961;DHT22;6040;49.358;11.140;2023-02-23T04:03:17;5.60;99.90
11961;DHT22;6040;49.358;11.140;2023-02-23T04:06:03;6.30;99.90
11961;DHT22;6040;49.358;11.140;2023-02-23T04:08:50;5.60;99.90
11961;DHT22;6040;49.358;11.140;2023-02-23T04:11:40;5.50;99.90
11961;DHT22;6040;49.358;11.140;2023-02-23T04:14:30;5.50;99.90
11961;DHT22;6040;49.358;11.140;2023-02-23T04:17:01;5.50;99.90
11961;DHT22;6040;49.358;11.140;2023-02-23T04:19:28;5.50;99.90
11961;DHT22;6040;49.358;11.140;2023-02-23T04:21:55;5.50;99.90
11961;DHT22;6040;49.358;11.140;2023-02-23T04:24:22;7.30;99.90
11961;DHT22;6040;49.358;11.140;2023-02-23T04:26:49;5.50;99.90
11961;DHT22;6040;49.358;11.140;2023-02-23T04:29:16;5.50;99.90
11961;DHT22;6040;49.358;11.140;2023-02-23T04:31:43;5.50;99.90
11961;DHT22;6040;49.358;11.140;2023-02-23T04:34:11;5.60;99.90
11961;DHT22;6040;49.358;11.140;2023-02-23T04:36:38;6.10;99.90
11961;DHT22;6040;49.358;11.140;2023-02-23T04:39:07;5.40;99.90
11961;DHT22;6040;49.358;11.140;2023-02-23T04:41:33;5.40;99.90
11961;DHT22;6040;49.358;11.140;2023-02-23T04:44:00;6.40;99.90
11961;DHT22;6040;49.358;11.140;2023-02-23T04:46:27;5.30;99.90
11961;DHT22;6040;49.358;11.140;2023-02-23T04:48:54;5.30;99.90
11961;DHT22;6040;49.358;11.140;2023-02-23T04:51:23;5.20;99.90
11961;DHT22;6040;49.358;11.140;2023-02-23T04:53:54;5.20;99.90
11961;DHT22;6040;49.358;11.140;2023-02-23T04:56:21;5.20;99.90
11961;DHT22;6040;49.358;11.140;2023-02-23T04:58:48;5.20;99.90
11961;DHT22;6040;49.358;11.140;2023-02-23T05:01:15;5.10;99.90
11961;DHT22;6040;49.358;11.140;2023-02-23T05:03:42;5.10;99.90
11961;DHT22;6040;49.358;11.140;2023-02-23T05:06:08;5.10;99.90
11961;DHT22;6040;49.358;11.140;2023-02-23T05:08:37;5.30;99.90
11961;DHT22;6040;49.358;11.140;2023-02-23T05:11:05;5.10;99.90
11961;DHT22;6040;49.358;11.140;2023-02-23T05:13:32;6.70;99.90
11961;DHT22;6040;49.358;11.140;2023-02-23T05:15:59;7.00;99.90
11961;DHT22;6040;49.358;11.140;2023-02-23T05:18:26;5.00;99.90
11961;DHT22;6040;49.358;11.140;2023-02-23T05:20:59;5.10;99.90
11961;DHT22;6040;49.358;11.140;2023-02-23T05:23:26;5.00;99.90
11961;DHT22;6040;49.358;11.140;2023-02-23T05:25:58;5.00;99.90
11961;DHT22;6040;49.358;11.140;2023-02-23T05:28:28;4.70;99.90
11961;DHT22;6040;49.358;11.140;2023-02-23T05:30:55;4.90;99.90
11961;DHT22;6040;49.358;11.140;2023-02-23T05:33:22;6.60;99.90
11961;DHT22;6040;49.358;11.140;2023-02-23T05:35:48;4.90;99.90
11961;DHT22;6040;49.358;11.140;2023-02-23T05:38:15;6.70;99.90
11961;DHT22;6040;49.358;11.140;2023-02-23T05:40:42;5.50;99.90
11961;DHT22;6040;49.358;11.140;2023-02-23T05:43:10;4.80;99.90
11961;DHT22;6040;49.358;11.140;2023-02-23T05:45:39;4.90;99.90
11961;DHT22;6040;49.358;11.140;2023-02-23T05:48:06;4.80;99.90
11961;DHT22;6040;49.358;11.140;2023-02-23T05:50:33;4.80;99.90
11961;DHT22;6040;49.358;11.140;2023-02-23T05:53:00;4.80;99.90
11961;DHT22;6040;49.358;11.140;2023-02-23T05:55:27;4.90;99.90
11961;DHT22;6040;49.358;11.140;2023-02-23T05:57:54;5.70;99.90
11961;DHT22;6040;49.358;11.140;2023-02-23T06:00:22;4.80;99.90
11961;DHT22;6040;49.358;11.140;2023-02-23T06:02:49;4.80;99.90
11961;DHT22;6040;49.358;11.140;2023-02-23T06:05:18;4.80;99.90
11961;DHT22;6040;49.358;11.140;2023-02-23T06:07:45;4.80;99.90
11961;DHT22;6040;49.358;11.140;2023-02-23T06:10:12;4.80;99.90
11961;DHT22;6040;49.358;11.140;2023-02-23T06:12:39;4.80;99.90
11961;DHT22;6040;49.358;11.140;2023-02-23T06:15:07;6.20;99.90
11961;DHT22;6040;49.358;11.140;2023-02-23T06:17:36;4.80;99.90
11961;DHT22;6040;49.358;11.140;2023-02-23T06:20:03;4.80;99.90
11961;DHT22;6040;49.358;11.140;2023-02-23T06:22:31;4.80;99.90
11961;DHT22;6040;49.358;11.140;2023-02-23T06:24:58;4.80;99.90
11961;DHT22;6040;49.358;11.140;2023-02-23T06:27:29;6.00;99.90
11961;DHT22;6040;49.358;11.140;2023-02-23T06:29:58;4.90;99.90
11961;DHT22;6040;49.358;11.140;2023-02-23T06:32:25;4.80;99.90
11961;DHT22;6040;49.358;11.140;2023-02-23T06:34:53;4.90;99.90
11961;DHT22;6040;49.358;11.140;2023-02-23T06:37:20;4.90;99.90
11961;DHT22;6040;49.358;11.140;2023-02-23T06:39:47;4.90;99.90
11961;DHT22;6040;49.358;11.140;2023-02-23T06:42:14;5.00;99.90
11961;DHT22;6040;49.358;11.140;2023-02-23T06:44:41;5.00;99.90
11961;DHT22;6040;49.358;11.140;2023-02-23T06:47:08;5.00;99.90
11961;DHT22;6040;49.358;11.140;2023-02-23T06:49:35;5.00;99.90
11961;DHT22;6040;49.358;11.140;2023-02-23T06:52:06;5.00;99.90
11961;DHT22;6040;49.358;11.140;2023-02-23T06:54:33;5.00;99.90
11961;DHT22;6040;49.358;11.140;2023-02-23T06:57:00;5.90;99.90
11961;DHT22;6040;49.358;11.140;2023-02-23T06:59:26;5.30;99.90
11961;DHT22;6040;49.358;11.140;2023-02-23T07:01:55;6.00;99.90
11961;DHT22;6040;49.358;11.140;2023-02-23T07:04:22;5.10;99.90
11961;DHT22;6040;49.358;11.140;2023-02-23T07:06:48;5.10;99.90
11961;DHT22;6040;49.358;11.140;2023-02-23T07:09:17;5.10;99.90
11961;DHT22;6040;49.358;11.140;2023-02-23T07:11:44;5.20;99.90
11961;DHT22;6040;49.358;11.140;2023-02-23T07:14:11;5.20;99.90
11961;DHT22;6040;49.358;11.140;2023-02-23T07:16:38;5.30;99.90
11961;DHT22;6040;49.358;11.140;2023-02-23T07:19:05;5.30;99.90
11961;DHT22;6040;49.358;11.140;2023-02-23T07:21:32;7.10;99.90
11961;DHT22;6040;49.358;11.140;2023-02-23T07:24:00;5.40;99.90
11961;DHT22;6040;49.358;11.140;2023-02-23T07:26:29;5.40;99.90
11961;DHT22;6040;49.358;11.140;2023-02-23T07:28:56;4.80;99.90
11961;DHT22;6040;49.358;11.140;2023-02-23T07:31:22;5.60;99.90
11961;DHT22;6040;49.358;11.140;2023-02-23T07:33:50;5.60;99.90
11961;DHT22;6040;49.358;11.140;2023-02-23T07:36:17;5.60;99.90
11961;DHT22;6040;49.358;11.140;2023-02-23T07:38:44;5.70;99.90
11961;DHT22;6040;49.358;11.140;2023-02-23T07:41:11;7.10;99.90
11961;DHT22;6040;49.358;11.140;2023-02-23T07:43:39;5.80;99.90
11961;DHT22;6040;49.358;11.140;2023-02-23T07:46:06;5.90;99.90
11961;DHT22;6040;49.358;11.140;2023-02-23T07:48:34;6.00;99.90
11961;DHT22;6040;49.358;11.140;2023-02-23T07:51:01;7.10;99.90
11961;DHT22;6040;49.358;11.140;2023-02-23T07:53:27;6.10;99.90
11961;DHT22;6040;49.358;11.140;2023-02-23T07:55:55;6.20;99.90
11961;DHT22;6040;49.358;11.140;2023-02-23T07:58:22;6.20;99.90
11961;DHT22;6040;49.358;11.140;2023-02-23T08:00:50;6.30;99.90
11961;DHT22;6040;49.358;11.140;2023-02-23T08:03:17;7.20;99.90
11961;DHT22;6040;49.358;11.140;2023-02-23T08:05:44;6.40;99.90
11961;DHT22;6040;49.358;11.140;2023-02-23T08:08:11;6.50;99.90
11961;DHT22;6040;49.358;11.140;2023-02-23T08:10:38;6.50;99.90
11961;DHT22;6040;49.358;11.140;2023-02-23T08:13:05;6.50;99.90
11961;DHT22;6040;49.358;11.140;2023-02-23T08:15:32;7.90;99.90
11961;DHT22;6040;49.358;11.140;2023-02-23T08:18:00;6.70;99.90
11961;DHT22;6040;49.358;11.140;2023-02-23T08:20:27;6.70;99.90
11961;DHT22;6040;49.358;11.140;2023-02-23T08:22:54;6.80;99.90
11961;DHT22;6040;49.358;11.140;2023-02-23T08:25:22;6.80;99.90
11961;DHT22;6040;49.358;11.140;2023-02-23T08:27:49;6.90;99.90
11961;DHT22;6040;49.358;11.140;2023-02-23T08:30:18;8.60;99.90
11961;DHT22;6040;49.358;11.140;2023-02-23T08:32:46;7.00;99.90
11961;DHT22;6040;49.358;11.140;2023-02-23T08:35:14;7.10;99.90
11961;DHT22;6040;49.358;11.140;2023-02-23T08:37:41;7.20;99.90
11961;DHT22;6040;49.358;11.140;2023-02-23T08:40:12;7.50;99.90
11961;DHT22;6040;49.358;11.140;2023-02-23T08:42:40;7.20;99.90
11961;DHT22;6040;49.358;11.140;2023-02-23T08:45:08;7.70;99.90
11961;DHT22;6040;49.358;11.140;2023-02-23T08:47:35;7.20;99.90
11961;DHT22;6040;49.358;11.140;2023-02-23T08:50:02;7.50;99.90
11961;DHT22;6040;49.358;11.140;2023-02-23T08:52:31;7.30;99.90
11961;DHT22;6040;49.358;11.140;2023-02-23T08:54:58;7.40;99.90
11961;DHT22;6040;49.358;11.140;2023-02-23T08:57:25;7.40;99.90
11961;DHT22;6040;49.358;11.140;2023-02-23T08:59:52;7.40;99.90
11961;DHT22;6040;49.358;11.140;2023-02-23T09:02:19;7.50;99.90
11961;DHT22;6040;49.358;11.140;2023-02-23T09:04:48;7.60;99.90
11961;DHT22;6040;49.358;11.140;2023-02-23T09:07:19;7.60;99.90
11961;DHT22;6040;49.358;11.140;2023-02-23T09:09:52;8.20;99.90
11961;DHT22;6040;49.358;11.140;2023-02-23T09:12:19;7.70;99.90
11961;DHT22;6040;49.358;11.140;2023-02-23T09:14:46;8.60;99.90
11961;DHT22;6040;49.358;11.140;2023-02-23T09:17:13;8.00;99.90
11961;DHT22;6040;49.358;11.140;2023-02-23T09:19:40;7.80;99.90
11961;DHT22;6040;49.358;11.140;2023-02-23T09:22:06;7.90;99.90
11961;DHT22;6040;49.358;11.140;2023-02-23T09:24:33;7.90;99.90
11961;DHT22;6040;49.358;11.140;2023-02-23T09:27:02;7.90;99.90
11961;DHT22;6040;49.358;11.140;2023-02-23T09:29:28;7.90;99.90
11961;DHT22;6040;49.358;11.140;2023-02-23T09:31:56;8.00;99.90
11961;DHT22;6040;49.358;11.140;2023-02-23T09:34:23;8.10;99.90
11961;DHT22;6040;49.358;11.140;2023-02-23T09:36:50;7.90;99.90
11961;DHT22;6040;49.358;11.140;2023-02-23T09:39:20;7.90;99.90
11961;DHT22;6040;49.358;11.140;2023-02-23T09:42:00;8.00;99.90
11961;DHT22;6040;49.358;11.140;2023-02-23T09:44:36;8.00;99.90
11961;DHT22;6040;49.358;11.140;2023-02-23T09:47:18;8.00;99.90
11961;DHT22;6040;49.358;11.140;2023-02-23T09:49:48;9.80;99.90
11961;DHT22;6040;49.358;11.140;2023-02-23T09:52:18;8.10;99.90
11961;DHT22;6040;49.358;11.140;2023-02-23T09:54:46;8.20;99.90
11961;DHT22;6040;49.358;11.140;2023-02-23T09:57:16;9.40;99.90
11961;DHT22;6040;49.358;11.140;2023-02-23T09:59:45;8.30;99.90
11961;DHT22;6040;49.358;11.140;2023-02-23T10:02:22;8.30;99.90
11961;DHT22;6040;49.358;11.140;2023-02-23T10:04:51;8.40;99.90
11961;DHT22;6040;49.358;11.140;2023-02-23T10:07:25;8.50;99.90
11961;DHT22;6040;49.358;11.140;2023-02-23T10:10:02;8.60;99.90
11961;DHT22;6040;49.358;11.140;2023-02-23T10:12:36;8.70;99.90
11961;DHT22;6040;49.358;11.140;2023-02-23T10:15:15;8.70;99.90
11961;DHT22;6040;49.358;11.140;2023-02-23T10:17:58;8.80;99.90
11961;DHT22;6040;49.358;11.140;2023-02-23T10:20:36;8.90;99.90
11961;DHT22;6040;49.358;11.140;2023-02-23T10:23:08;9.10;99.90
11961;DHT22;6040;49.358;11.140;2023-02-23T10:25:43;9.20;99.90
11961;DHT22;6040;49.358;11.140;2023-02-23T10:28:14;9.40;99.90
11961;DHT22;6040;49.358;11.140;2023-02-23T10:30:43;9.50;99.90
11961;DHT22;6040;49.358;11.140;2023-02-23T10:33:13;9.50;99.90
11961;DHT22;6040;49.358;11.140;2023-02-23T10:35:43;9.50;99.90
11961;DHT22;6040;49.358;11.140;2023-02-23T10:38:14;9.60;99.90
11961;DHT22;6040;49.358;11.140;2023-02-23T10:40:43;9.60;99.90
11961;DHT22;6040;49.358;11.140;2023-02-23T10:43:12;9.60;99.90
11961;DHT22;6040;49.358;11.140;2023-02-23T10:45:45;10.50;99.90
11961;DHT22;6040;49.358;11.140;2023-02-23T10:48:16;9.70;99.90
11961;DHT22;6040;49.358;11.140;2023-02-23T10:50:44;9.70;99.90
11961;DHT22;6040;49.358;11.140;2023-02-23T10:53:16;9.70;99.90
11961;DHT22;6040;49.358;11.140;2023-02-23T10:55:45;10.20;99.90
11961;DHT22;6040;49.358;11.140;2023-02-23T10:58:14;9.90;99.90
11961;DHT22;6040;49.358;11.140;2023-02-23T11:00:52;10.00;99.90
11961;DHT22;6040;49.358;11.140;2023-02-23T11:03:24;10.00;99.90
11961;DHT22;6040;49.358;11.140;2023-02-23T11:05:53;10.00;99.90
11961;DHT22;6040;49.358;11.140;2023-02-23T11:08:26;10.10;99.90
11961;DHT22;6040;49.358;11.140;2023-02-23T11:11:05;10.00;99.90
11961;DHT22;6040;49.358;11.140;2023-02-23T11:13:35;10.00;99.90
11961;DHT22;6040;49.358;11.140;2023-02-23T11:16:09;10.10;99.90
11961;DHT22;6040;49.358;11.140;2023-02-23T11:18:39;10.10;99.90
11961;DHT22;6040;49.358;11.140;2023-02-23T11:21:11;10.10;99.90
11961;DHT22;6040;49.358;11.140;2023-02-23T11:23:40;10.00;99.90
11961;DHT22;6040;49.358;11.140;2023-02-23T11:26:23;10.00;99.90
11961;DHT22;6040;49.358;11.140;2023-02-23T11:28:55;10.00;99.90
11961;DHT22;6040;49.358;11.140;2023-02-23T11:31:44;10.00;99.90
11961;DHT22;6040;49.358;11.140;2023-02-23T11:34:36;10.20;99.90
11961;DHT22;6040;49.358;11.140;2023-02-23T11:37:09;10.10;99.90
11961;DHT22;6040;49.358;11.140;2023-02-23T11:39:50;10.20;99.90
11961;DHT22;6040;49.358;11.140;2023-02-23T11:42:19;10.20;99.90
11961;DHT22;6040;49.358;11.140;2023-02-23T11:44:50;10.30;99.90
11961;DHT22;6040;49.358;11.140;2023-02-23T11:47:20;11.60;99.90
11961;DHT22;6040;49.358;11.140;2023-02-23T11:49:48;10.30;99.90
11961;DHT22;6040;49.358;11.140;2023-02-23T11:52:18;10.20;99.90
11961;DHT22;6040;49.358;11.140;2023-02-23T11:54:52;10.20;99.90
11961;DHT22;6040;49.358;11.140;2023-02-23T11:57:21;10.20;99.90
11961;DHT22;6040;49.358;11.140;2023-02-23T11:59:48;10.20;99.90
11961;DHT22;6040;49.358;11.140;2023-02-23T12:02:21;10.20;99.90
11961;DHT22;6040;49.358;11.140;2023-02-23T12:04:50;11.50;99.90
11961;DHT22;6040;49.358;11.140;2023-02-23T12:07:36;11.80;99.90
11961;DHT22;6040;49.358;11.140;2023-02-23T12:10:20;10.30;99.90
11961;DHT22;6040;49.358;11.140;2023-02-23T12:12:54;10.30;99.90
11961;DHT22;6040;49.358;11.140;2023-02-23T12:15:29;10.30;99.90
11961;DHT22;6040;49.358;11.140;2023-02-23T12:18:03;10.40;99.90
11961;DHT22;6040;49.358;11.140;2023-02-23T12:20:37;10.50;99.90
11961;DHT22;6040;49.358;11.140;2023-02-23T12:23:09;10.60;99.90
11961;DHT22;6040;49.358;11.140;2023-02-23T12:25:41;11.10;99.90
11961;DHT22;6040;49.358;11.140;2023-02-23T12:28:13;10.80;99.90
11961;DHT22;6040;49.358;11.140;2023-02-23T12:30:47;10.80;99.90
11961;DHT22;6040;49.358;11.140;2023-02-23T12:33:21;10.80;99.90
11961;DHT22;6040;49.358;11.140;2023-02-23T12:35:55;10.80;99.90
11961;DHT22;6040;49.358;11.140;2023-02-23T12:38:28;10.70;99.90
11961;DHT22;6040;49.358;11.140;2023-02-23T12:41:02;10.70;99.90
11961;DHT22;6040;49.358;11.140;2023-02-23T12:43:36;10.70;99.90
11961;DHT22;6040;49.358;11.140;2023-02-23T12:46:09;10.80;99.90
11961;DHT22;6040;49.358;11.140;2023-02-23T12:48:45;12.40;99.90
11961;DHT22;6040;49.358;11.140;2023-02-23T12:51:20;10.70;99.90
11961;DHT22;6040;49.358;11.140;2023-02-23T12:53:49;11.10;99.90
11961;DHT22;6040;49.358;11.140;2023-02-23T12:56:29;11.60;99.90
11961;DHT22;6040;49.358;11.140;2023-02-23T12:59:11;10.70;99.90
11961;DHT22;6040;49.358;11.140;2023-02-23T13:01:45;11.50;99.90
11961;DHT22;6040;49.358;11.140;2023-02-23T13:04:31;10.70;99.90
11961;DHT22;6040;49.358;11.140;2023-02-23T13:07:10;10.80;99.90
11961;DHT22;6040;49.358;11.140;2023-02-23T13:09:45;10.80;99.90
11961;DHT22;6040;49.358;11.140;2023-02-23T13:12:31;11.80;99.90
11961;DHT22;6040;49.358;11.140;2023-02-23T13:15:07;10.80;99.90
11961;DHT22;6040;49.358;11.140;2023-02-23T13:17:39;10.80;99.90
11961;DHT22;6040;49.358;11.140;2023-02-23T13:20:14;10.80;99.90
11961;DHT22;6040;49.358;11.140;2023-02-23T13:22:48;10.80;99.90
11961;DHT22;6040;49.358;11.140;2023-02-23T13:25:29;10.90;99.90
11961;DHT22;6040;49.358;11.140;2023-02-23T13:27:59;10.90;99.90
11961;DHT22;6040;49.358;11.140;2023-02-23T13:30:29;11.00;99.90
11961;DHT22;6040;49.358;11.140;2023-02-23T13:32:58;11.00;99.90
11961;DHT22;6040;49.358;11.140;2023-02-23T13:35:32;11.10;99.90
11961;DHT22;6040;49.358;11.140;2023-02-23T13:38:06;11.10;99.90
11961;DHT22;6040;49.358;11.140;2023-02-23T13:40:40;11.10;99.90
11961;DHT22;6040;49.358;11.140;2023-02-23T13:43:14;11.20;99.90
11961;DHT22;6040;49.358;11.140;2023-02-23T13:45:59;11.20;99.90
11961;DHT22;6040;49.358;11.140;2023-02-23T13:48:41;11.70;99.90
11961;DHT22;6040;49.358;11.140;2023-02-23T13:51:17;11.20;99.90
11961;DHT22;6040;49.358;11.140;2023-02-23T13:53:46;12.20;99.90
11961;DHT22;6040;49.358;11.140;2023-02-23T13:56:26;11.20;99.90
11961;DHT22;6040;49.358;11.140;2023-02-23T13:58:58;11.10;99.90
11961;DHT22;6040;49.358;11.140;2023-02-23T14:01:28;11.10;99.90
11961;DHT22;6040;49.358;11.140;2023-02-23T14:03:58;11.00;99.90
11961;DHT22;6040;49.358;11.140;2023-02-23T14:06:29;10.90;99.90
11961;DHT22;6040;49.358;11.140;2023-02-23T14:08:59;11.10;99.90
11961;DHT22;6040;49.358;11.140;2023-02-23T14:11:28;10.80;99.90
11961;DHT22;6040;49.358;11.140;2023-02-23T14:14:00;10.70;99.90
11961;DHT22;6040;49.358;11.140;2023-02-23T14:16:28;10.70;99.90
11961;DHT22;6040;49.358;11.140;2023-02-23T14:19:05;10.60;99.90
11961;DHT22;6040;49.358;11.140;2023-02-23T14:21:36;10.60;99.90
11961;DHT22;6040;49.358;11.140;2023-02-23T14:24:13;10.60;99.90
11961;DHT22;6040;49.358;11.140;2023-02-23T14:27:10;10.50;99.90
11961;DHT22;6040;49.358;11.140;2023-02-23T14:29:41;10.50;99.90
11961;DHT22;6040;49.358;11.140;2023-02-23T14:32:27;10.50;99.90
11961;DHT22;6040;49.358;11.140;2023-02-23T14:34:56;11.50;99.90
11961;DHT22;6040;49.358;11.140;2023-02-23T14:37:27;10.60;99.90
11961;DHT22;6040;49.358;11.140;2023-02-23T14:40:02;10.60;99.90
11961;DHT22;6040;49.358;11.140;2023-02-23T14:42:30;10.50;99.90
11961;DHT22;6040;49.358;11.140;2023-02-23T14:45:02;10.60;99.90
11961;DHT22;6040;49.358;11.140;2023-02-23T14:47:40;10.60;99.90
11961;DHT22;6040;49.358;11.140;2023-02-23T14:50:12;10.50;99.90
11961;DHT22;6040;49.358;11.140;2023-02-23T14:52:44;10.50;99.90
11961;DHT22;6040;49.358;11.140;2023-02-23T14:55:20;10.50;99.90
11961;DHT22;6040;49.358;11.140;2023-02-23T14:57:47;12.10;99.90
11961;DHT22;6040;49.358;11.140;2023-02-23T15:00:19;10.50;99.90
11961;DHT22;6040;49.358;11.140;2023-02-23T15:02:56;10.50;99.90
11961;DHT22;6040;49.358;11.140;2023-02-23T15:05:25;10.50;99.90
11961;DHT22;6040;49.358;11.140;2023-02-23T15:07:57;10.50;99.90
11961;DHT22;6040;49.358;11.140;2023-02-23T15:10:28;10.50;99.90
11961;DHT22;6040;49.358;11.140;2023-02-23T15:12:56;10.40;99.90
11961;DHT22;6040;49.358;11.140;2023-02-23T15:15:25;10.40;99.90
11961;DHT22;6040;49.358;11.140;2023-02-23T15:17:54;11.40;99.90
11961;DHT22;6040;49.358;11.140;2023-02-23T15:20:27;10.30;99.90
11961;DHT22;6040;49.358;11.140;2023-02-23T15:23:00;10.40;99.90
11961;DHT22;6040;49.358;11.140;2023-02-23T15:25:34;10.30;99.90
11961;DHT22;6040;49.358;11.140;2023-02-23T15:28:10;10.30;99.90
11961;DHT22;6040;49.358;11.140;2023-02-23T15:30:44;10.30;99.90
11961;DHT22;6040;49.358;11.140;2023-02-23T15:33:13;10.20;99.90
11961;DHT22;6040;49.358;11.140;2023-02-23T15:35:45;11.90;99.90
11961;DHT22;6040;49.358;11.140;2023-02-23T15:38:16;10.20;99.90
11961;DHT22;6040;49.358;11.140;2023-02-23T15:40:45;10.20;99.90
11961;DHT22;6040;49.358;11.140;2023-02-23T15:43:12;10.20;99.90
11961;DHT22;6040;49.358;11.140;2023-02-23T15:45:42;10.20;99.90
11961;DHT22;6040;49.358;11.140;2023-02-23T15:48:14;10.50;99.90
11961;DHT22;6040;49.358;11.140;2023-02-23T15:50:44;10.10;99.90
11961;DHT22;6040;49.358;11.140;2023-02-23T15:53:24;10.10;99.90
11961;DHT22;6040;49.358;11.140;2023-02-23T15:55:54;10.10;99.90
11961;DHT22;6040;49.358;11.140;2023-02-23T15:58:26;10.10;99.90
11961;DHT22;6040;49.358;11.140;2023-02-23T16:00:56;10.00;99.90
11961;DHT22;6040;49.358;11.140;2023-02-23T16:03:27;10.00;99.90
11961;DHT22;6040;49.358;11.140;2023-02-23T16:05:59;10.00;99.90
11961;DHT22;6040;49.358;11.140;2023-02-23T16:08:28;10.00;99.90
11961;DHT22;6040;49.358;11.140;2023-02-23T16:11:03;10.00;99.90
11961;DHT22;6040;49.358;11.140;2023-02-23T16:13:33;9.90;99.90
11961;DHT22;6040;49.358;11.140;2023-02-23T16:16:00;9.90;99.90
11961;DHT22;6040;49.358;11.140;2023-02-23T16:18:38;9.90;99.90
11961;DHT22;6040;49.358;11.140;2023-02-23T16:21:06;9.90;99.90